createdAt,value
2019-04-26T00:02:32.644Z,15.70
2019-04-26T00:05:00.369Z,15.71
2019-04-26T00:07:27.671Z,15.67
2019-04-26T00:09:56.427Z,15.56
2019-04-26T00:12:43.234Z,15.28
2019-04-26T00:15:39.456Z,15.29
2019-04-26T00:18:06.960Z,15.02
2019-04-26T00:20:34.180Z,14.94
2019-04-26T00:23:01.473Z,15.04
2019-04-26T00:25:28.766Z,15.12
2019-04-26T00:27:55.977Z,15.15
2019-04-26T00:30:23.316Z,15.07
2019-04-26T00:32:50.539Z,15.11
2019-04-26T00:35:17.865Z,15.17
2019-04-26T00:37:45.521Z,15.18
2019-04-26T00:40:14.217Z,15.21
2019-04-26T00:42:42.483Z,15.24
2019-04-26T00:45:10.000Z,15.26
2019-04-26T00:47:38.058Z,15.26
2019-04-26T00:50:07.319Z,15.26
2019-04-26T00:52:35.373Z,15.26
2019-04-26T00:55:03.292Z,15.27
2019-04-26T00:57:31.997Z,15.29
2019-04-26T00:59:59.967Z,15.31
2019-04-26T01:02:35.698Z,15.33
2019-04-26T01:05:03.109Z,15.35
2019-04-26T01:07:30.453Z,15.36
2019-04-26T01:09:57.726Z,15.32
2019-04-26T01:12:26.021Z,15.33
2019-04-26T01:14:53.461Z,15.31
2019-04-26T01:17:20.702Z,15.28
2019-04-26T01:19:48.736Z,15.26
2019-04-26T01:22:23.285Z,15.21
2019-04-26T01:24:53.878Z,15.22
2019-04-26T01:27:25.520Z,15.23
2019-04-26T01:29:56.790Z,15.18
2019-04-26T01:32:26.271Z,15.21
2019-04-26T01:34:54.784Z,15.22
2019-04-26T01:37:22.647Z,15.23
2019-04-26T01:39:56.088Z,15.23
2019-04-26T01:42:44.046Z,15.23
2019-04-26T01:45:21.773Z,15.23
2019-04-26T01:47:53.010Z,15.25
2019-04-26T01:50:23.542Z,15.26
2019-04-26T01:52:52.311Z,15.27
2019-04-26T01:55:21.521Z,15.25
2019-04-26T01:57:49.111Z,15.25
2019-04-26T02:00:26.056Z,15.24
2019-04-26T02:02:56.627Z,15.25
2019-04-26T02:05:25.914Z,15.24
2019-04-26T02:07:53.513Z,15.23
2019-04-26T02:10:24.111Z,15.20
2019-04-26T02:12:52.991Z,15.21
2019-04-26T02:15:24.109Z,15.21
2019-04-26T02:17:55.085Z,15.19
2019-04-26T02:21:02.311Z,15.18
2019-04-26T02:23:34.472Z,15.15
2019-04-26T02:26:19.899Z,15.10
2019-04-26T02:28:48.571Z,15.08
2019-04-26T02:31:16.021Z,15.04
2019-04-26T02:33:43.242Z,15.01
2019-04-26T02:36:10.501Z,14.97
2019-04-26T02:38:37.825Z,14.97
2019-04-26T02:41:05.241Z,14.93
2019-04-26T02:43:33.857Z,14.92
2019-04-26T02:46:19.692Z,14.89
2019-04-26T02:49:24.384Z,14.91
2019-04-26T02:52:24.625Z,14.92
2019-04-26T02:55:14.304Z,14.95
2019-04-26T02:57:52.129Z,14.97
2019-04-26T03:00:20.545Z,14.98
2019-04-26T03:03:03.136Z,15.00
2019-04-26T03:05:35.496Z,15.03
2019-04-26T03:08:08.191Z,15.04
2019-04-26T03:10:41.332Z,15.04
2019-04-26T03:13:19.205Z,15.04
2019-04-26T03:16:04.099Z,15.04
2019-04-26T03:18:46.472Z,15.05
2019-04-26T03:21:31.999Z,15.02
2019-04-26T03:24:06.397Z,14.97
2019-04-26T03:26:55.276Z,14.98
2019-04-26T03:30:18.579Z,14.98
2019-04-26T03:32:58.534Z,14.97
2019-04-26T03:35:57.840Z,14.86
2019-04-26T03:38:43.575Z,14.76
2019-04-26T03:41:24.003Z,14.79
2019-04-26T03:44:10.131Z,14.81
2019-04-26T03:46:59.877Z,14.80
2019-04-26T03:50:06.035Z,14.81
2019-04-26T03:52:52.094Z,14.84
2019-04-26T03:55:55.684Z,14.86
2019-04-26T03:58:32.666Z,14.87
2019-04-26T04:01:07.295Z,14.85
2019-04-26T04:03:49.226Z,14.85
2019-04-26T04:06:24.229Z,14.86
2019-04-26T04:09:01.319Z,14.87
2019-04-26T04:12:10.011Z,14.87
2019-04-26T04:15:04.636Z,14.86
2019-04-26T04:17:48.258Z,14.86
2019-04-26T04:20:54.531Z,14.84
2019-04-26T04:24:09.770Z,14.83
2019-04-26T04:27:09.690Z,14.78
2019-04-26T04:29:51.057Z,14.79
2019-04-26T04:32:39.671Z,14.78
2019-04-26T04:35:11.080Z,14.80
2019-04-26T04:38:08.527Z,14.79
2019-04-26T04:40:49.003Z,14.74
2019-04-26T04:43:36.246Z,14.67
2019-04-26T04:46:58.514Z,14.66
2019-04-26T04:49:53.311Z,14.63
2019-04-26T04:52:39.355Z,14.54
2019-04-26T04:55:13.834Z,14.54
2019-04-26T04:58:11.589Z,14.50
2019-04-26T05:01:48.715Z,14.48
2019-04-26T05:04:31.293Z,14.51
2019-04-26T05:07:39.151Z,14.31
2019-04-26T05:10:23.859Z,14.22
2019-04-26T05:13:21.521Z,14.26
2019-04-26T05:16:27.951Z,14.09
2019-04-26T05:19:25.904Z,13.99
2019-04-26T05:22:30.518Z,13.98
2019-04-26T05:25:43.612Z,14.03
2019-04-26T05:28:23.755Z,13.98
2019-04-26T05:31:16.948Z,14.04
2019-04-26T05:34:24.911Z,14.09
2019-04-26T05:37:19.760Z,14.06
2019-04-26T05:39:59.985Z,14.06
2019-04-26T05:43:27.283Z,14.11
2019-04-26T05:46:30.162Z,14.13
2019-04-26T05:49:27.932Z,14.18
2019-04-26T05:52:34.312Z,14.22
2019-04-26T05:55:56.053Z,14.26
2019-04-26T05:58:43.863Z,14.26
2019-04-26T06:02:10.276Z,13.85
2019-04-26T06:04:59.273Z,13.68
2019-04-26T06:07:58.545Z,13.88
2019-04-26T06:10:47.129Z,13.97
2019-04-26T06:13:52.328Z,14.04
2019-04-26T06:16:59.322Z,14.11
2019-04-26T06:19:51.943Z,14.13
2019-04-26T06:22:34.737Z,14.20
2019-04-26T06:25:30.312Z,14.22
2019-04-26T06:28:02.823Z,14.08
2019-04-26T06:30:57.313Z,13.87
2019-04-26T06:33:32.539Z,13.72
2019-04-26T06:36:05.641Z,13.69
2019-04-26T06:39:20.107Z,13.84
2019-04-26T06:42:23.050Z,13.97
2019-04-26T06:45:48.357Z,14.12
2019-04-26T06:48:27.795Z,14.22
2019-04-26T06:51:04.908Z,14.31
2019-04-26T06:53:45.027Z,14.36
2019-04-26T06:56:42.229Z,14.41
2019-04-26T06:59:39.668Z,14.40
2019-04-26T07:02:20.109Z,14.39
2019-04-26T07:05:15.342Z,14.35
2019-04-26T07:08:06.720Z,14.38
2019-04-26T07:11:36.673Z,14.32
2019-04-26T07:14:25.319Z,14.34
2019-04-26T07:17:19.810Z,14.38
2019-04-26T07:20:40.077Z,14.38
2019-04-26T07:23:42.548Z,14.35
2019-04-26T07:26:45.465Z,14.35
2019-04-26T07:30:01.632Z,14.28
2019-04-26T07:33:25.488Z,14.26
2019-04-26T07:36:31.348Z,14.26
2019-04-26T07:39:50.070Z,14.27
2019-04-26T07:43:03.269Z,14.38
2019-04-26T07:45:59.319Z,14.40
2019-04-26T07:48:48.023Z,14.40
2019-04-26T07:51:58.963Z,14.44
2019-04-26T07:54:58.615Z,14.45
2019-04-26T07:57:46.675Z,14.24
2019-04-26T08:00:31.173Z,14.26
2019-04-26T08:03:12.812Z,14.37
2019-04-26T08:06:06.130Z,14.34
2019-04-26T08:08:43.670Z,14.31
2019-04-26T08:11:19.251Z,14.27
2019-04-26T08:14:06.584Z,14.36
2019-04-26T08:16:49.733Z,14.43
2019-04-26T08:19:21.333Z,14.35
2019-04-26T08:21:50.631Z,14.33
2019-04-26T08:24:22.734Z,14.40
2019-04-26T08:27:13.628Z,14.45
2019-04-26T08:29:38.700Z,14.47
2019-04-26T08:32:13.287Z,14.46
2019-04-26T08:34:44.565Z,14.50
2019-04-26T08:37:22.685Z,14.57
2019-04-26T08:39:52.105Z,14.59
2019-04-26T08:42:24.916Z,14.61
2019-04-26T08:45:13.743Z,14.69
2019-04-26T08:47:53.599Z,14.60
2019-04-26T08:50:35.535Z,14.55
2019-04-26T08:53:04.266Z,14.66
2019-04-26T08:55:34.314Z,14.69
2019-04-26T08:58:07.272Z,14.84
2019-04-26T09:00:48.014Z,14.76
2019-04-26T09:07:08.385Z,14.81
2019-04-26T09:09:39.557Z,14.68
2019-04-26T09:12:22.815Z,14.77
2019-04-26T09:17:21.810Z,14.61
2019-04-26T09:19:49.292Z,14.67
2019-04-26T09:22:47.869Z,14.82
2019-04-26T09:25:22.742Z,14.86
2019-04-26T09:28:09.764Z,14.91
2019-04-26T09:30:47.652Z,14.91
2019-04-26T09:33:39.615Z,14.85
2019-04-26T09:36:07.167Z,14.94
2019-04-26T09:38:34.423Z,15.02
2019-04-26T09:41:01.675Z,15.02
2019-04-26T09:43:43.734Z,14.96
2019-04-26T09:46:29.367Z,15.07
2019-04-26T09:49:21.700Z,15.08
2019-04-26T09:51:49.618Z,15.04
2019-04-26T11:08:31.136Z,15.82
2019-04-26T11:10:58.601Z,15.90
2019-04-26T11:13:25.819Z,15.91
2019-04-26T11:15:53.113Z,15.90
2019-04-26T11:18:27.323Z,16.01
2019-04-26T11:20:49.540Z,15.90
2019-04-26T11:23:16.818Z,15.96
2019-04-26T11:25:44.074Z,15.93
2019-04-26T11:28:11.302Z,16.01
2019-04-26T11:30:38.525Z,16.10
2019-04-26T11:33:07.348Z,16.06
2019-04-26T11:35:34.983Z,16.19
2019-04-26T11:38:02.500Z,16.28
2019-04-26T11:40:29.792Z,16.38
2019-04-26T11:42:57.163Z,16.36
2019-04-26T11:45:24.406Z,16.45
2019-04-26T11:47:56.172Z,16.43
2019-04-26T11:50:20.868Z,16.48
2019-04-26T11:52:48.099Z,16.39
2019-04-26T11:55:15.455Z,16.26
2019-04-26T11:57:43.768Z,16.36
2019-04-26T12:00:19.443Z,16.47
2019-04-26T12:02:50.764Z,16.47
2019-04-26T12:05:50.414Z,16.58
2019-04-26T12:08:22.826Z,16.66
2019-04-26T12:10:50.170Z,16.88
2019-04-26T12:13:17.504Z,16.99
2019-04-26T12:15:45.395Z,17.03
2019-04-26T12:18:12.750Z,17.14
2019-04-26T12:20:40.103Z,17.09
2019-04-26T12:23:07.425Z,17.07
2019-04-26T12:25:34.683Z,17.24
2019-04-26T12:28:05.748Z,17.03
2019-04-26T12:30:31.094Z,17.16
2019-04-26T12:32:58.357Z,17.00
2019-04-26T12:35:25.636Z,16.98
2019-04-26T12:37:54.712Z,16.95
2019-04-26T12:40:22.013Z,17.06
2019-04-26T12:42:49.319Z,17.03
2019-04-26T12:45:36.198Z,17.06
2019-04-26T12:48:08.018Z,17.00
2019-04-26T12:50:37.626Z,16.91
2019-04-26T12:53:04.158Z,17.01
2019-04-26T12:55:31.713Z,17.11
2019-04-26T12:57:58.983Z,17.09
2019-04-26T13:00:32.969Z,16.86
2019-04-26T13:02:59.628Z,16.94
2019-04-26T13:05:26.908Z,16.99
2019-04-26T13:07:54.277Z,16.98
2019-04-26T13:10:53.370Z,16.92
2019-04-26T13:13:43.030Z,16.76
2019-04-26T13:16:21.529Z,16.83
2019-04-26T13:18:49.807Z,16.78
2019-04-26T13:21:17.122Z,16.90
2019-04-26T13:23:44.346Z,16.90
2019-04-26T13:26:11.581Z,16.96
2019-04-26T13:28:38.856Z,16.91
2019-04-26T13:31:06.114Z,16.75
2019-04-26T13:33:33.352Z,16.90
2019-04-26T13:36:03.713Z,16.89
2019-04-26T13:38:29.869Z,16.92
2019-04-26T13:40:59.594Z,16.92
2019-04-26T13:43:28.472Z,16.85
2019-04-26T13:46:13.638Z,16.74
2019-04-26T13:48:54.954Z,16.86
2019-04-26T13:51:22.490Z,17.07
2019-04-26T13:53:49.716Z,17.16
2019-04-26T13:56:16.991Z,17.13
2019-04-26T13:58:44.217Z,17.10
2019-04-26T14:01:14.524Z,17.09
2019-04-26T14:03:41.242Z,17.04
2019-04-26T14:06:08.578Z,17.13
2019-04-26T14:08:35.880Z,17.04
2019-04-26T14:11:03.393Z,16.98
2019-04-26T14:13:30.627Z,17.08
2019-04-26T14:15:57.880Z,17.05
2019-04-26T14:18:25.092Z,17.14
2019-04-26T14:20:54.932Z,17.17
2019-04-26T14:23:51.122Z,17.05
2019-04-26T14:26:25.949Z,16.99
2019-04-26T14:28:54.263Z,16.98
2019-04-26T14:31:22.350Z,16.94
2019-04-26T14:33:49.592Z,17.00
2019-04-26T14:36:18.289Z,17.02
2019-04-26T14:38:45.902Z,17.10
2019-04-26T14:41:13.936Z,16.91
2019-04-26T14:43:42.349Z,17.08
2019-04-26T14:46:10.398Z,17.09
2019-04-26T14:48:40.617Z,17.19
2019-04-26T14:51:08.675Z,17.09
2019-04-26T14:53:38.082Z,16.95
2019-04-26T14:56:05.324Z,16.84
2019-04-26T14:58:33.742Z,16.74
2019-04-26T15:01:03.308Z,16.87
2019-04-26T15:03:58.303Z,16.80
2019-04-26T15:06:28.957Z,16.84
2019-04-26T15:08:56.293Z,16.76
2019-04-26T15:11:23.529Z,16.72
2019-04-26T15:13:51.772Z,16.75
2019-04-26T15:16:22.021Z,16.92
2019-04-26T15:18:48.181Z,17.11
2019-04-26T15:21:15.780Z,17.08
2019-04-26T15:23:43.004Z,17.17
2019-04-26T15:26:10.266Z,17.28
2019-04-26T15:28:37.467Z,17.25
2019-04-26T15:31:04.817Z,17.34
2019-04-26T15:33:32.774Z,17.32
2019-04-26T15:36:02.259Z,17.38
2019-04-26T15:38:34.835Z,17.45
2019-04-26T15:41:22.286Z,17.12
2019-04-26T15:44:11.519Z,17.04
2019-04-26T15:46:56.993Z,17.08
2019-04-26T15:49:43.770Z,16.93
2019-04-26T15:52:11.070Z,16.86
2019-04-26T15:54:38.356Z,16.82
2019-04-26T15:57:06.559Z,16.65
2019-04-26T15:59:34.994Z,16.64
2019-04-26T16:02:02.548Z,16.73
2019-04-26T16:04:30.119Z,16.71
2019-04-26T16:06:57.468Z,16.70
2019-04-26T16:09:24.700Z,16.71
2019-04-26T16:23:41.143Z,17.01
2019-04-26T16:26:02.858Z,16.99
2019-04-26T16:29:04.677Z,17.02
2019-04-26T16:32:06.366Z,16.98
2019-04-26T16:34:34.228Z,17.01
2019-04-26T16:37:02.973Z,17.09
2019-04-26T16:39:37.990Z,17.03
2019-04-26T16:42:05.140Z,17.12
2019-04-26T16:44:31.295Z,17.06
2019-04-26T16:47:01.458Z,17.15
2019-04-26T16:49:27.286Z,17.02
2019-04-26T16:52:02.144Z,16.99
2019-04-26T16:54:26.763Z,16.98
2019-04-26T16:56:52.817Z,16.98
2019-04-26T16:59:23.971Z,16.99
2019-04-26T17:01:49.201Z,16.90
2019-04-26T17:04:19.959Z,16.94
2019-04-26T17:06:46.465Z,17.12
2019-04-26T17:09:14.482Z,17.12
2019-04-26T17:11:43.394Z,16.93
2019-04-26T17:14:11.234Z,16.86
2019-04-26T17:16:39.116Z,16.73
2019-04-26T17:19:06.309Z,16.77
2019-04-26T17:21:39.657Z,16.89
2019-04-26T17:24:26.435Z,16.83
2019-04-26T17:26:57.594Z,16.85
2019-04-26T17:29:24.813Z,16.80
2019-04-26T17:31:52.282Z,16.74
2019-04-26T17:34:22.529Z,16.71
2019-04-26T17:36:50.550Z,16.67
2019-04-26T17:39:18.498Z,16.76
2019-04-26T17:41:50.586Z,16.55
2019-04-26T17:44:14.906Z,16.54
2019-04-26T17:46:42.081Z,16.59
2019-04-26T17:49:11.078Z,16.63
2019-04-26T17:51:42.463Z,16.63
2019-04-26T17:54:32.300Z,16.58
2019-04-26T17:56:39.620Z,16.38
2019-04-26T17:59:09.224Z,16.34
2019-04-26T18:01:45.333Z,16.42
2019-04-26T18:04:04.227Z,16.40
2019-04-26T18:06:31.444Z,16.32
2019-04-26T18:08:58.684Z,16.32
2019-04-26T18:11:25.861Z,16.34
2019-04-26T18:13:53.048Z,16.13
2019-04-26T18:16:22.026Z,16.07
2019-04-26T18:19:08.808Z,16.11
2019-04-26T18:21:49.613Z,16.10
2019-04-26T18:24:16.337Z,16.10
2019-04-26T18:26:43.669Z,16.04
2019-04-26T18:29:10.892Z,15.82
2019-04-26T18:31:38.324Z,15.93
2019-04-26T18:34:05.547Z,15.85
2019-04-26T18:36:33.273Z,15.84
2019-04-26T18:39:00.816Z,15.86
2019-04-26T18:41:28.914Z,15.91
2019-04-26T18:43:59.792Z,15.95
2019-04-26T18:46:35.781Z,15.99
2019-04-26T18:49:01.494Z,16.03
2019-04-26T18:51:28.699Z,16.03
2019-04-26T18:54:30.770Z,16.04
2019-04-26T18:56:59.574Z,15.81
2019-04-26T18:59:27.977Z,15.84
2019-04-26T19:01:55.305Z,15.85
2019-04-26T19:04:23.651Z,15.85
2019-04-26T19:06:52.350Z,15.83
2019-04-26T19:09:21.373Z,15.79
2019-04-26T19:11:49.827Z,15.73
2019-04-26T19:14:49.713Z,15.66
2019-04-26T19:17:33.849Z,15.57
2019-04-26T19:20:29.899Z,15.52
2019-04-26T19:22:58.832Z,15.46
2019-04-26T19:25:29.894Z,15.37
2019-04-26T19:27:58.970Z,15.33
2019-04-26T19:30:24.559Z,15.27
2019-04-26T19:32:53.866Z,15.25
2019-04-26T19:35:21.944Z,15.23
2019-04-26T19:37:49.324Z,15.20
2019-04-26T19:40:16.516Z,15.14
2019-04-26T19:42:43.716Z,15.11
2019-04-26T19:45:19.327Z,15.07
2019-04-26T19:47:53.984Z,15.01
2019-04-26T19:50:31.033Z,14.97
2019-04-26T19:53:02.544Z,14.94
2019-04-26T19:55:56.660Z,14.89
2019-04-26T19:58:26.415Z,14.83
2019-04-26T20:00:53.683Z,14.69
2019-04-26T20:03:20.899Z,14.65
2019-04-26T20:05:48.064Z,14.61
2019-04-26T20:08:15.258Z,14.58
2019-04-26T20:10:45.358Z,14.51
2019-04-26T20:13:15.157Z,14.43
2019-04-26T20:15:42.250Z,14.36
2019-04-26T20:18:09.577Z,14.27
2019-04-26T20:20:36.751Z,14.17
2019-04-26T20:23:07.713Z,14.09
2019-04-26T20:25:33.054Z,14.04
2019-04-26T20:28:01.509Z,13.97
2019-04-26T20:30:51.819Z,13.91
2019-04-26T20:33:19.054Z,13.88
2019-04-26T20:35:46.238Z,13.79
2019-04-26T20:38:13.486Z,13.74
2019-04-26T20:40:43.434Z,13.70
2019-04-26T20:43:21.731Z,13.68
2019-04-26T20:45:41.963Z,13.62
2019-04-26T20:48:08.017Z,13.57
2019-04-26T20:50:36.880Z,13.53
2019-04-26T20:53:04.276Z,13.53
2019-04-26T20:55:34.466Z,13.50
2019-04-26T20:58:07.089Z,13.42
2019-04-26T21:00:31.607Z,13.38
2019-04-26T21:03:01.326Z,13.34
2019-04-26T21:05:28.052Z,13.33
2019-04-26T21:07:55.533Z,13.21
2019-04-26T21:10:25.649Z,13.19
2019-04-26T21:12:54.830Z,13.18
2019-04-26T21:15:24.075Z,13.17
2019-04-26T21:17:51.778Z,13.17
2019-04-26T21:20:19.228Z,13.18
2019-04-26T21:22:46.426Z,13.16
2019-04-26T21:25:36.097Z,13.13
2019-04-26T21:28:24.927Z,13.12
2019-04-26T21:31:07.532Z,13.10
2019-04-26T21:33:40.217Z,13.05
2019-04-26T21:36:17.390Z,13.02
2019-04-26T21:38:52.991Z,12.99
2019-04-26T21:41:23.589Z,12.95
2019-04-26T21:43:50.973Z,12.92
2019-04-26T21:46:19.135Z,12.89
2019-04-26T21:48:47.340Z,12.86
2019-04-26T21:51:16.137Z,12.84
2019-04-26T21:53:45.169Z,12.83
2019-04-26T21:56:14.561Z,12.81
2019-04-26T21:58:43.628Z,12.80
2019-04-26T22:01:19.150Z,12.74
2019-04-26T22:03:53.751Z,12.70
2019-04-26T22:06:19.746Z,12.63
2019-04-26T22:08:55.676Z,12.60
2019-04-26T22:11:23.283Z,12.57
2019-04-26T22:14:13.229Z,12.50
2019-04-26T22:17:04.523Z,12.53
2019-04-26T22:19:43.781Z,12.49
2019-04-26T22:22:18.072Z,12.46
2019-04-26T22:24:45.381Z,12.43
2019-04-26T22:27:13.270Z,12.40
2019-04-26T22:29:40.518Z,12.34
2019-04-26T22:32:11.541Z,12.36
2019-04-26T22:34:40.959Z,12.34
2019-04-26T22:37:11.320Z,12.27
2019-04-26T22:39:39.841Z,12.20
2019-04-26T22:42:05.293Z,12.18
2019-04-26T22:44:47.004Z,12.17
2019-04-26T22:47:42.836Z,12.16
2019-04-26T22:50:14.070Z,12.13
2019-04-26T22:52:39.223Z,12.02
2019-04-26T22:55:06.856Z,11.98
2019-04-26T22:57:34.093Z,11.97
2019-04-26T23:00:01.281Z,11.96
2019-04-26T23:02:28.466Z,11.96
2019-04-26T23:04:59.983Z,11.90
2019-04-26T23:07:26.248Z,11.93
2019-04-26T23:09:55.524Z,11.88
2019-04-26T23:12:45.525Z,11.91
2019-04-26T23:15:43.233Z,11.95
2019-04-26T23:18:18.864Z,11.93
2019-04-26T23:21:03.445Z,11.94
2019-04-26T23:23:30.804Z,11.94
2019-04-26T23:25:57.996Z,11.95
2019-04-26T23:28:27.771Z,11.96
2019-04-26T23:30:54.392Z,11.96
2019-04-26T23:33:21.607Z,11.96
2019-04-26T23:35:48.880Z,11.90
2019-04-26T23:38:16.128Z,11.90
2019-04-26T23:40:43.332Z,11.94
2019-04-26T23:43:10.529Z,11.91
2019-04-26T23:45:43.589Z,11.86
2019-04-26T23:48:07.731Z,11.85
2019-04-26T23:50:36.117Z,11.78
2019-04-26T23:53:03.315Z,11.77
2019-04-26T23:55:30.561Z,11.84
2019-04-26T23:57:57.757Z,11.84
